createdAt,value
2022-10-13T00:00:39.781Z,101854.34
2022-10-13T00:03:08.861Z,101859.38
2022-10-13T00:05:36.550Z,101851.94
2022-10-13T00:08:04.201Z,101846.63
2022-10-13T00:10:31.938Z,101842.41
2022-10-13T00:12:59.542Z,101835.50
2022-10-13T00:15:27.204Z,101836.03
2022-10-13T00:17:54.846Z,101832.59
2022-10-13T00:20:23.987Z,101835.22
2022-10-13T00:22:51.709Z,101840.53
2022-10-13T00:25:19.340Z,101843.47
2022-10-13T00:27:46.963Z,101838.16
2022-10-13T00:30:15.030Z,101825.72
2022-10-13T00:32:42.636Z,101839.22
2022-10-13T00:35:10.566Z,101831.00
2022-10-13T00:37:39.306Z,101833.91
2022-10-13T00:40:08.558Z,101830.72
2022-10-13T00:42:36.238Z,101836.56
2022-10-13T00:45:07.925Z,101827.03
2022-10-13T00:47:39.746Z,101836.56
2022-10-13T00:50:11.333Z,101825.44
2022-10-13T00:52:42.345Z,101825.44
2022-10-13T00:55:12.838Z,101828.09
2022-10-13T00:57:43.573Z,101822.78
2022-10-13T01:00:12.830Z,101816.44
2022-10-13T01:02:40.481Z,101825.97
2022-10-13T01:05:08.958Z,101825.72
2022-10-13T01:07:37.213Z,101828.38
2022-10-13T01:10:07.127Z,101831.00
2022-10-13T01:12:45.673Z,101833.38
2022-10-13T01:15:18.373Z,101825.44
2022-10-13T01:17:57.214Z,101823.84
2022-10-13T01:20:56.430Z,101825.44
2022-10-13T01:23:57.255Z,101822.78
2022-10-13T01:27:05.385Z,101820.94
2022-10-13T01:29:55.713Z,101816.44
2022-10-13T01:32:30.860Z,101815.09
2022-10-13T01:35:06.924Z,101816.97
2022-10-13T01:37:44.745Z,101822.25
2022-10-13T01:40:19.741Z,101810.06
2022-10-13T01:42:54.607Z,101816.16
2022-10-13T01:45:29.739Z,101812.72
2022-10-13T01:47:59.457Z,101821.19
2022-10-13T01:50:27.626Z,101814.03
2022-10-13T01:52:56.649Z,101811.09
2022-10-13T01:55:24.372Z,101810.59
2022-10-13T01:57:51.991Z,101809.78
2022-10-13T02:00:22.281Z,101804.22
2022-10-13T02:03:05.801Z,101801.56
2022-10-13T02:05:49.046Z,101805.81
2022-10-13T02:08:25.771Z,101800.50
2022-10-13T02:11:00.010Z,101794.16
2022-10-13T02:13:30.462Z,101760.47
2022-10-13T02:16:01.984Z,101753.28
2022-10-13T02:18:34.131Z,101775.59
2022-10-13T02:21:03.440Z,101776.63
2022-10-13T02:23:31.351Z,101777.72
2022-10-13T02:26:00.513Z,101776.91
2022-10-13T02:28:29.267Z,101776.63
2022-10-13T02:30:57.081Z,101775.06
2022-10-13T02:33:24.797Z,101773.97
2022-10-13T02:35:53.788Z,101779.03
2022-10-13T02:38:21.479Z,101768.44
2022-10-13T02:40:49.345Z,101768.16
2022-10-13T02:43:17.037Z,101761.53
2022-10-13T02:45:44.621Z,101759.41
2022-10-13T02:48:12.269Z,101758.34
2022-10-13T02:50:39.940Z,101756.22
2022-10-13T02:53:08.900Z,101746.41
2022-10-13T02:55:36.525Z,101747.97
2022-10-13T02:58:04.180Z,101745.03
2022-10-13T03:00:31.831Z,101712.19
2022-10-13T03:02:59.857Z,101693.63
2022-10-13T03:05:27.321Z,101716.19
2022-10-13T03:07:54.966Z,101721.75
2022-10-13T03:10:24.137Z,101728.66
2022-10-13T03:12:51.801Z,101730.50
2022-10-13T03:15:19.404Z,101733.69
2022-10-13T03:17:47.025Z,101741.63
2022-10-13T03:20:14.652Z,101745.09
2022-10-13T03:22:46.018Z,101747.47
2022-10-13T03:25:16.456Z,101745.63
2022-10-13T03:27:45.441Z,101746.13
2022-10-13T03:30:13.566Z,101739.50
2022-10-13T03:32:41.634Z,101741.88
2022-10-13T03:35:09.939Z,101733.66
2022-10-13T03:37:37.570Z,101735.75
2022-10-13T03:40:06.533Z,101719.59
2022-10-13T03:42:36.539Z,101717.47
2022-10-13T03:45:06.368Z,101706.84
2022-10-13T03:47:36.030Z,101712.16
2022-10-13T03:50:04.008Z,101709.50
2022-10-13T03:52:31.454Z,101692.50
2022-10-13T03:54:59.093Z,101704.47
2022-10-13T03:57:26.783Z,101712.16
2022-10-13T03:59:56.030Z,101717.75
2022-10-13T04:02:25.301Z,101703.41
2022-10-13T04:04:52.933Z,101700.75
2022-10-13T04:07:20.660Z,101710.31
2022-10-13T04:09:48.304Z,101696.25
2022-10-13T04:12:19.831Z,101693.31
2022-10-13T04:14:48.670Z,101702.88
2022-10-13T04:17:16.303Z,101700.22
2022-10-13T04:19:45.426Z,101700.44
2022-10-13T04:22:13.037Z,101694.91
2022-10-13T04:24:40.761Z,101673.09
2022-10-13T04:27:08.410Z,101673.91
2022-10-13T04:29:36.003Z,101672.84
2022-10-13T04:32:03.602Z,101673.66
2022-10-13T04:34:31.171Z,101669.16
2022-10-13T04:37:00.166Z,101679.50
2022-10-13T04:39:27.782Z,101677.63
2022-10-13T04:41:55.791Z,101671.00
2022-10-13T04:44:23.449Z,101673.63
2022-10-13T04:46:51.060Z,101684.78
2022-10-13T04:49:18.714Z,101681.06
2022-10-13T04:51:46.438Z,101689.03
2022-10-13T04:54:15.494Z,101686.66
2022-10-13T04:56:45.290Z,101690.06
2022-10-13T04:59:13.052Z,101690.88
2022-10-13T05:01:40.697Z,101696.19
2022-10-13T05:04:09.004Z,101701.50
2022-10-13T05:06:53.400Z,101696.69
2022-10-13T05:09:28.450Z,101689.28
2022-10-13T05:11:56.128Z,101683.97
2022-10-13T05:14:24.168Z,101696.97
2022-10-13T05:16:51.888Z,101690.56
2022-10-13T05:19:20.235Z,101685.25
2022-10-13T05:21:47.844Z,101692.16
2022-10-13T05:24:16.288Z,101700.13
2022-10-13T05:26:45.249Z,101699.34
2022-10-13T05:29:12.856Z,101698.53
2022-10-13T05:31:41.406Z,101696.69
2022-10-13T05:34:09.458Z,101693.22
2022-10-13T05:36:37.067Z,101686.88
2022-10-13T05:39:07.432Z,101685.00
2022-10-13T05:41:35.292Z,101682.88
2022-10-13T05:44:09.288Z,101680.75
2022-10-13T05:46:37.490Z,101679.94
2022-10-13T05:49:05.169Z,101674.63
2022-10-13T05:51:36.108Z,101678.88
2022-10-13T05:54:08.386Z,101682.59
2022-10-13T05:56:40.029Z,101684.19
2022-10-13T05:59:13.940Z,101678.88
2022-10-13T06:01:43.117Z,101675.94
2022-10-13T06:04:15.055Z,101680.44
2022-10-13T06:06:42.669Z,101676.22
2022-10-13T06:09:10.272Z,101666.13
2022-10-13T06:11:37.933Z,101676.75
2022-10-13T06:14:05.774Z,101666.66
2022-10-13T06:16:35.550Z,101656.03
2022-10-13T06:19:03.137Z,101644.38
2022-10-13T06:21:30.787Z,101643.78
2022-10-13T06:23:58.411Z,101635.56
2022-10-13T06:26:26.036Z,101633.72
2022-10-13T06:28:59.137Z,101638.47
2022-10-13T06:31:27.548Z,101651.72
2022-10-13T06:33:56.328Z,101656.78
2022-10-13T06:36:23.940Z,101650.16
2022-10-13T06:38:51.778Z,101635.81
2022-10-13T06:41:19.390Z,101637.41
2022-10-13T06:43:47.061Z,101634.47
2022-10-13T06:46:16.051Z,101650.13
2022-10-13T06:48:43.711Z,101650.13
2022-10-13T06:51:13.061Z,101661.00
2022-10-13T06:53:40.632Z,101664.47
2022-10-13T06:56:09.233Z,101669.75
2022-10-13T06:58:37.365Z,101675.06
2022-10-13T07:01:05.806Z,101677.72
2022-10-13T07:03:33.915Z,101675.06
2022-10-13T07:06:02.032Z,101676.09
2022-10-13T07:08:31.156Z,101665.78
2022-10-13T07:10:59.083Z,101660.97
2022-10-13T07:13:26.732Z,101659.09
2022-10-13T07:15:54.335Z,101658.56
2022-10-13T07:18:21.979Z,101658.00
2022-10-13T07:20:49.626Z,101663.84
2022-10-13T07:23:17.234Z,101657.97
2022-10-13T07:25:46.259Z,101665.41
2022-10-13T07:28:14.056Z,101655.00
2022-10-13T07:30:41.937Z,101652.09
2022-10-13T07:33:09.609Z,101649.66
2022-10-13T07:35:39.949Z,101656.78
2022-10-13T07:38:07.544Z,101654.66
2022-10-13T07:40:35.428Z,101658.63
2022-10-13T07:43:04.218Z,101653.78
2022-10-13T07:45:32.171Z,101660.97
2022-10-13T07:47:59.628Z,101664.09
2022-10-13T07:50:27.296Z,101657.19
2022-10-13T07:52:54.892Z,101662.47
2022-10-13T07:55:22.529Z,101664.28
2022-10-13T07:57:50.166Z,101659.19
2022-10-13T08:00:20.023Z,101663.97
2022-10-13T08:02:51.025Z,101659.66
2022-10-13T08:05:18.791Z,101663.63
2022-10-13T08:07:46.535Z,101662.28
2022-10-13T08:10:15.245Z,101659.06
2022-10-13T08:12:42.878Z,101656.94
2022-10-13T08:15:11.230Z,101653.16
2022-10-13T08:17:40.279Z,101647.50
2022-10-13T08:20:08.634Z,101641.56
2022-10-13T08:22:36.309Z,101643.34
2022-10-13T08:25:04.531Z,101640.28
2022-10-13T08:27:47.890Z,101645.72
2022-10-13T08:30:18.565Z,101649.00
2022-10-13T08:32:47.668Z,101650.13
2022-10-13T08:35:15.901Z,101649.44
2022-10-13T08:37:43.838Z,101645.84
2022-10-13T08:40:14.084Z,101642.84
2022-10-13T08:42:44.661Z,101650.81
2022-10-13T08:45:40.355Z,101659.81
2022-10-13T08:48:14.030Z,101651.25
2022-10-13T08:50:45.286Z,101654.97
2022-10-13T08:53:15.853Z,101652.13
2022-10-13T08:55:46.339Z,101648.16
2022-10-13T08:58:19.917Z,101657.81
2022-10-13T09:00:47.629Z,101641.34
2022-10-13T09:03:25.386Z,101639.72
2022-10-13T09:06:07.968Z,101640.22
2022-10-13T09:08:41.509Z,101644.19
2022-10-13T09:11:11.580Z,101646.66
2022-10-13T09:13:39.302Z,101639.72
2022-10-13T09:16:08.104Z,101642.41
2022-10-13T09:18:38.448Z,101636.78
2022-10-13T09:21:22.937Z,101641.03
2022-10-13T09:23:53.998Z,101644.00
2022-10-13T09:26:24.649Z,101642.91
2022-10-13T09:28:53.679Z,101628.03
2022-10-13T09:31:25.942Z,101619.25
2022-10-13T09:34:03.096Z,101629.59
2022-10-13T09:36:31.218Z,101630.09
2022-10-13T09:39:13.361Z,101622.59
2022-10-13T09:41:42.848Z,101630.25
2022-10-13T09:44:14.226Z,101630.44
2022-10-13T09:46:49.661Z,101635.13
2022-10-13T09:49:34.623Z,101634.53
2022-10-13T09:52:04.788Z,101634.44
2022-10-13T09:54:44.780Z,101630.66
2022-10-13T09:57:19.859Z,101644.19
2022-10-13T09:59:51.395Z,101636.44
2022-10-13T10:02:27.445Z,101635.25
2022-10-13T10:04:59.953Z,101635.16
2022-10-13T10:07:32.647Z,101628.88
2022-10-13T10:10:04.941Z,101633.53
2022-10-13T10:12:37.276Z,101622.19
2022-10-13T10:15:27.084Z,101622.59
2022-10-13T10:17:59.581Z,101626.56
2022-10-13T10:20:43.418Z,101617.97
2022-10-13T10:23:17.147Z,101622.13
2022-10-13T10:25:49.191Z,101617.19
2022-10-13T10:28:38.406Z,101615.41
2022-10-13T10:31:18.404Z,101609.47
2022-10-13T10:33:56.630Z,101617.88
2022-10-13T10:36:34.439Z,101611.25
2022-10-13T10:39:09.313Z,101614.78
2022-10-13T10:41:45.911Z,101604.44
2022-10-13T10:44:18.493Z,101607.16
2022-10-13T10:46:48.789Z,101598.78
2022-10-13T10:49:20.887Z,101603.59
2022-10-13T10:51:50.953Z,101610.38
2022-10-13T10:54:34.906Z,101604.13
2022-10-13T10:57:09.632Z,101604.34
2022-10-13T10:59:51.219Z,101602.63
2022-10-13T11:02:38.224Z,101611.72
2022-10-13T11:05:06.713Z,101596.00
2022-10-13T11:08:01.287Z,101599.00
2022-10-13T11:10:30.486Z,101593.66
2022-10-13T11:13:22.346Z,101597.22
2022-10-13T11:15:50.396Z,101594.34
2022-10-13T11:18:56.598Z,101589.31
2022-10-13T11:21:24.266Z,101588.09
2022-10-13T11:23:53.349Z,101593.81
2022-10-13T11:26:31.196Z,101593.34
2022-10-13T11:29:00.380Z,101589.97
2022-10-13T11:31:47.698Z,101586.34
2022-10-13T11:34:30.888Z,101583.50
2022-10-13T11:37:03.332Z,101587.69
2022-10-13T11:40:00.776Z,101575.72
2022-10-13T11:42:59.292Z,101573.84
2022-10-13T11:45:53.797Z,101569.53
2022-10-13T11:49:02.834Z,101573.84
2022-10-13T11:51:37.950Z,101577.63
2022-10-13T11:54:16.639Z,101569.16
2022-10-13T11:56:50.284Z,101571.31
2022-10-13T11:59:26.520Z,101563.44
2022-10-13T12:01:55.550Z,101565.69
2022-10-13T12:04:24.554Z,101557.28
2022-10-13T12:06:58.171Z,101556.81
2022-10-13T12:09:26.055Z,101555.72
2022-10-13T12:12:01.346Z,101554.91
2022-10-13T12:14:34.149Z,101554.91
2022-10-13T12:17:03.311Z,101552.56
2022-10-13T12:19:32.668Z,101550.69
2022-10-13T12:22:01.848Z,101548.81
2022-10-13T12:24:31.314Z,101555.91
2022-10-13T12:27:10.466Z,101551.38
2022-10-13T12:29:41.487Z,101551.97
2022-10-13T12:32:20.094Z,101550.38
2022-10-13T12:34:47.701Z,101542.19
2022-10-13T12:37:26.021Z,101541.41
2022-10-13T12:39:54.223Z,101539.22
2022-10-13T12:42:29.229Z,101535.63
2022-10-13T12:44:57.751Z,101540.50
2022-10-13T12:47:39.688Z,101543.56
2022-10-13T12:50:38.620Z,101541.31
2022-10-13T12:53:16.251Z,101537.16
2022-10-13T12:55:50.257Z,101538.53
2022-10-13T12:58:24.141Z,101544.69
2022-10-13T13:01:27.981Z,101535.69
2022-10-13T13:03:58.369Z,101536.59
2022-10-13T13:06:34.737Z,101536.22
2022-10-13T13:09:27.369Z,101545.09
2022-10-13T13:12:28.757Z,101549.25
2022-10-13T13:14:58.168Z,101535.50
2022-10-13T13:20:21.749Z,101539.16
2022-10-13T13:22:50.692Z,101537.78
2022-10-13T13:25:18.334Z,101538.84
2022-10-13T13:27:46.119Z,101530.69
2022-10-13T13:30:17.208Z,101536.00
2022-10-13T13:32:44.893Z,101530.69
2022-10-13T13:35:12.634Z,101536.19
2022-10-13T13:37:44.409Z,101535.91
2022-10-13T13:40:17.429Z,101526.53
2022-10-13T13:42:45.304Z,101529.06
2022-10-13T13:45:13.215Z,101525.91
2022-10-13T13:47:42.161Z,101517.31
2022-10-13T13:50:17.033Z,101512.88
2022-10-13T13:52:44.714Z,101507.63
2022-10-13T13:55:12.363Z,101517.00
2022-10-13T13:57:40.013Z,101503.66
2022-10-13T14:00:08.750Z,101514.34
2022-10-13T14:02:36.415Z,101517.59
2022-10-13T14:05:06.008Z,101502.78
2022-10-13T14:07:33.650Z,101502.59
2022-10-13T14:10:02.324Z,101493.31
2022-10-13T14:12:30.647Z,101501.94
2022-10-13T14:14:58.620Z,101495.78
2022-10-13T14:17:26.359Z,101492.34
2022-10-13T14:19:54.050Z,101490.34
2022-10-13T14:22:23.731Z,101481.63
2022-10-13T14:24:51.555Z,101483.41
2022-10-13T14:27:19.244Z,101485.78
2022-10-13T14:29:47.136Z,101482.81
2022-10-13T14:32:14.973Z,101482.81
2022-10-13T14:34:42.418Z,101489.41
2022-10-13T14:37:10.012Z,101477.00
2022-10-13T14:39:39.157Z,101477.56
2022-10-13T14:42:06.797Z,101475.53
2022-10-13T14:44:34.445Z,101470.69
2022-10-13T14:47:02.092Z,101465.53
2022-10-13T14:49:29.726Z,101465.72
2022-10-13T14:51:57.371Z,101466.22
2022-10-13T14:54:25.602Z,101467.28
2022-10-13T14:56:54.793Z,101468.38
2022-10-13T14:59:22.519Z,101463.66
2022-10-13T15:01:50.704Z,101469.09
2022-10-13T15:04:18.313Z,101467.31
2022-10-13T15:06:45.961Z,101468.72
2022-10-13T15:09:13.601Z,101465.56
2022-10-13T15:11:41.267Z,101463.97
2022-10-13T15:14:10.747Z,101466.63
2022-10-13T15:16:38.494Z,101462.69
2022-10-13T15:19:06.446Z,101452.91
2022-10-13T15:21:34.116Z,101454.03
2022-10-13T15:24:02.400Z,101461.72
2022-10-13T15:26:30.038Z,101459.84
2022-10-13T15:28:57.707Z,101455.91
2022-10-13T15:31:26.773Z,101453.81
2022-10-13T15:33:55.306Z,101462.13
2022-10-13T15:36:24.316Z,101456.78
2022-10-13T15:38:52.676Z,101449.59
2022-10-13T15:41:22.908Z,101458.66
2022-10-13T15:43:50.642Z,101457.38
2022-10-13T15:46:23.905Z,101456.59
2022-10-13T15:48:55.220Z,101444.06
2022-10-13T15:51:26.723Z,101445.94
2022-10-13T15:53:55.143Z,101445.94
2022-10-13T15:56:22.828Z,101449.88
2022-10-13T15:58:50.476Z,101450.50
2022-10-13T16:01:18.161Z,101454.22
2022-10-13T16:03:45.860Z,101436.69
2022-10-13T16:06:15.278Z,101444.69
2022-10-13T16:08:44.429Z,101446.22
2022-10-13T16:11:14.170Z,101442.59
2022-10-13T16:13:42.977Z,101448.81
2022-10-13T16:16:10.580Z,101446.44
2022-10-13T16:18:40.187Z,101440.63
2022-10-13T16:21:17.296Z,101435.38
2022-10-13T16:23:47.844Z,101430.69
2022-10-13T16:26:17.325Z,101432.84
2022-10-13T16:28:45.149Z,101425.44
2022-10-13T16:31:15.129Z,101430.78
2022-10-13T16:33:43.933Z,101426.84
2022-10-13T16:36:13.850Z,101425.25
2022-10-13T16:38:41.705Z,101429.00
2022-10-13T16:41:12.333Z,101431.66
2022-10-13T16:43:39.982Z,101439.47
2022-10-13T16:46:08.265Z,101437.41
2022-10-13T16:48:36.414Z,101435.13
2022-10-13T16:51:09.676Z,101433.56
2022-10-13T16:53:38.551Z,101433.81
2022-10-13T16:56:07.573Z,101441.34
2022-10-13T16:58:36.861Z,101445.91
2022-10-13T17:01:08.595Z,101449.31
2022-10-13T17:03:36.403Z,101443.50
2022-10-13T17:06:04.296Z,101448.34
2022-10-13T17:08:31.985Z,101453.66
2022-10-13T17:11:00.504Z,101444.66
2022-10-13T17:13:28.213Z,101451.06
2022-10-13T17:15:57.747Z,101460.16
2022-10-13T17:18:27.673Z,101463.09
2022-10-13T17:20:57.291Z,101462.31
2022-10-13T17:23:26.025Z,101462.31
2022-10-13T17:25:54.569Z,101469.81
2022-10-13T17:28:23.412Z,101471.97
2022-10-13T17:30:59.572Z,101481.84
2022-10-13T17:33:27.426Z,101474.16
2022-10-13T17:35:59.351Z,101479.97
2022-10-13T17:38:27.057Z,101483.50
2022-10-13T17:40:59.504Z,101476.63
2022-10-13T17:43:27.639Z,101482.22
2022-10-13T17:45:58.204Z,101484.31
2022-10-13T17:48:32.690Z,101487.56
2022-10-13T17:51:02.862Z,101486.00
2022-10-13T17:53:30.521Z,101476.72
2022-10-13T17:56:00.911Z,101481.25
2022-10-13T17:58:28.740Z,101490.28
2022-10-13T18:01:12.458Z,101483.41
2022-10-13T18:03:45.669Z,101492.47
2022-10-13T18:06:13.582Z,101491.66
2022-10-13T18:08:41.340Z,101489.00
2022-10-13T18:11:10.394Z,101490.91
2022-10-13T18:13:38.844Z,101492.47
2022-10-13T18:16:08.647Z,101502.53
2022-10-13T18:18:36.682Z,101498.81
2022-10-13T18:21:07.345Z,101509.16
2022-10-13T18:23:36.470Z,101507.56
2022-10-13T18:26:05.882Z,101509.97
2022-10-13T18:28:36.072Z,101516.34
2022-10-13T18:31:05.582Z,101509.47
2022-10-13T18:33:33.611Z,101507.06
2022-10-13T18:36:01.516Z,101520.69
2022-10-13T18:38:30.360Z,101526.03
2022-10-13T18:41:00.529Z,101537.25
2022-10-13T18:43:28.160Z,101539.41
2022-10-13T18:46:00.610Z,101547.97
2022-10-13T18:48:28.592Z,101541.66
2022-10-13T18:50:56.209Z,101545.69
2022-10-13T18:53:24.169Z,101543.59
2022-10-13T18:56:02.194Z,101551.09
2022-10-13T18:58:31.113Z,101555.13
2022-10-13T19:01:02.452Z,101563.69
2022-10-13T19:03:30.491Z,101566.94
2022-10-13T19:05:58.101Z,101564.03
2022-10-13T19:08:26.088Z,101568.59
2022-10-13T19:10:55.112Z,101552.09
2022-10-13T19:13:23.041Z,101555.88
2022-10-13T19:15:50.498Z,101556.66
2022-10-13T19:18:18.112Z,101555.38
2022-10-13T19:20:46.105Z,101555.63
2022-10-13T19:23:16.734Z,101555.13
2022-10-13T19:25:45.322Z,101558.38
2022-10-13T19:28:14.450Z,101558.47
2022-10-13T19:30:42.221Z,101567.81
2022-10-13T19:33:11.892Z,101562.00
2022-10-13T19:35:44.094Z,101553.78
2022-10-13T19:38:12.573Z,101555.13
2022-10-13T19:40:42.472Z,101557.28
2022-10-13T19:43:10.721Z,101554.44
2022-10-13T19:45:45.049Z,101555.78
2022-10-13T19:48:12.714Z,101564.63
2022-10-13T19:50:41.622Z,101566.56
2022-10-13T19:53:09.310Z,101570.34
2022-10-13T19:55:39.339Z,101572.28
2022-10-13T19:58:07.249Z,101565.97
2022-10-13T20:00:35.083Z,101562.78
2022-10-13T20:03:05.585Z,101564.13
2022-10-13T20:05:33.329Z,101566.59
2022-10-13T20:08:00.935Z,101576.44
2022-10-13T20:10:28.583Z,101568.53
2022-10-13T20:13:00.242Z,101573.94
2022-10-13T20:15:27.893Z,101568.66
2022-10-13T20:17:55.479Z,101574.03
2022-10-13T20:20:24.491Z,101580.19
2022-10-13T20:22:52.102Z,101584.19
2022-10-13T20:25:20.473Z,101580.53
2022-10-13T20:27:48.360Z,101587.47
2022-10-13T20:30:15.925Z,101585.38
2022-10-13T20:32:43.596Z,101591.81
2022-10-13T20:35:11.341Z,101593.94
2022-10-13T20:37:40.375Z,101586.28
2022-10-13T20:40:08.869Z,101583.38
2022-10-13T20:42:36.510Z,101582.06
2022-10-13T20:45:04.364Z,101590.88
2022-10-13T20:47:31.907Z,101596.75
2022-10-13T20:49:59.498Z,101592.56
2022-10-13T20:52:27.105Z,101598.41
2022-10-13T20:54:56.097Z,101604.28
2022-10-13T20:57:24.670Z,101597.94
2022-10-13T20:59:52.324Z,101595.34
2022-10-13T21:02:19.913Z,101603.06
2022-10-13T21:04:47.569Z,101607.34
2022-10-13T21:07:15.222Z,101607.09
2022-10-13T21:09:42.892Z,101608.50
2022-10-13T21:12:11.883Z,101609.28
2022-10-13T21:14:39.605Z,101612.53
2022-10-13T21:17:07.839Z,101612.00
2022-10-13T21:19:36.496Z,101616.75
2022-10-13T21:22:04.129Z,101615.47
2022-10-13T21:24:32.079Z,101616.81
2022-10-13T21:26:59.532Z,101616.28
2022-10-13T21:29:28.610Z,101615.53
2022-10-13T21:31:56.269Z,101612.63
2022-10-13T21:34:23.914Z,101608.66
2022-10-13T21:36:51.606Z,101608.41
2022-10-13T21:39:19.216Z,101609.72
2022-10-13T21:41:46.909Z,101593.31
2022-10-13T21:44:15.003Z,101597.81
2022-10-13T21:46:44.001Z,101589.34
2022-10-13T21:49:11.666Z,101590.97
2022-10-13T21:51:40.829Z,101584.06
2022-10-13T21:54:10.677Z,101589.91
2022-10-13T21:56:39.729Z,101587.28
2022-10-13T21:59:08.113Z,101581.50
2022-10-13T22:01:35.869Z,101587.06
2022-10-13T22:04:06.210Z,101585.75
2022-10-13T22:06:34.430Z,101585.22
2022-10-13T22:09:05.865Z,101580.44
2022-10-13T22:11:35.869Z,101585.25
2022-10-13T22:14:03.608Z,101580.50
2022-10-13T22:16:33.647Z,101567.78
2022-10-13T22:19:01.386Z,101572.56
2022-10-13T22:21:33.568Z,101572.31
2022-10-13T22:24:04.417Z,101571.50
2022-10-13T22:26:34.165Z,101567.00
2022-10-13T22:29:03.315Z,101565.69
2022-10-13T22:31:32.660Z,101559.31
2022-10-13T22:34:01.012Z,101559.56
2022-10-13T22:36:30.781Z,101560.41
2022-10-13T22:39:00.314Z,101553.53
2022-10-13T22:41:28.598Z,101559.63
2022-10-13T22:43:58.081Z,101564.13
2022-10-13T22:46:28.277Z,101566.50
2022-10-13T22:48:56.289Z,101569.66
2022-10-13T22:51:27.264Z,101566.75
2022-10-13T22:53:57.298Z,101559.88
2022-10-13T22:56:26.710Z,101552.72
2022-10-13T22:58:55.622Z,101553.53
2022-10-13T23:01:23.646Z,101554.56
2022-10-13T23:03:52.211Z,101552.72
2022-10-13T23:06:22.039Z,101554.84
2022-10-13T23:08:50.479Z,101545.56
2022-10-13T23:11:19.989Z,101544.50
2022-10-13T23:13:47.670Z,101541.59
2022-10-13T23:16:17.961Z,101555.09
2022-10-13T23:18:45.695Z,101545.31
2022-10-13T23:21:16.802Z,101545.06
2022-10-13T23:23:45.172Z,101543.75
2022-10-13T23:26:16.301Z,101537.13
2022-10-13T23:28:45.694Z,101535.81
2022-10-13T23:31:16.424Z,101533.97
2022-10-13T23:33:44.866Z,101534.50
2022-10-13T23:36:16.927Z,101525.50
2022-10-13T23:38:44.602Z,101520.97
2022-10-13T23:41:15.303Z,101525.50
2022-10-13T23:43:43.394Z,101529.47
2022-10-13T23:46:12.710Z,101536.63
2022-10-13T23:48:41.167Z,101525.00
2022-10-13T23:51:10.789Z,101527.66
2022-10-13T23:53:39.477Z,101528.78
2022-10-13T23:56:08.325Z,101531.16
2022-10-13T23:58:37.145Z,101530.38
